sensor_id;sensor_type;location;lat;lon;timestamp;pressure;altitude;pressure_sealevel;temperature;humidity
85850;BME280;76337;42.850;-0.560;2024-03-08T00:00:34;87513.69;;;4.82;63.48
85850;BME280;76337;42.850;-0.560;2024-03-08T00:03:00;87496.59;;;4.92;61.46
85850;BME280;76337;42.850;-0.560;2024-03-08T00:05:27;87484.44;;;4.87;63.97
85850;BME280;76337;42.850;-0.560;2024-03-08T00:07:53;87487.47;;;4.56;66.16
85850;BME280;76337;42.850;-0.560;2024-03-08T00:10:19;87493.13;;;4.67;65.49
85850;BME280;76337;42.850;-0.560;2024-03-08T00:12:46;87500.38;;;4.60;64.82
85850;BME280;76337;42.850;-0.560;2024-03-08T00:15:13;87510.72;;;4.59;65.82
85850;BME280;76337;42.850;-0.560;2024-03-08T00:17:40;87502.31;;;4.48;67.49
85850;BME280;76337;42.850;-0.560;2024-03-08T00:20:07;87489.91;;;4.35;68.24
85850;BME280;76337;42.850;-0.560;2024-03-08T00:22:34;87492.41;;;4.26;67.42
85850;BME280;76337;42.850;-0.560;2024-03-08T00:25:01;87499.50;;;4.36;66.02
85850;BME280;76337;42.850;-0.560;2024-03-08T00:27:28;87492.25;;;4.43;65.33
85850;BME280;76337;42.850;-0.560;2024-03-08T00:29:57;87511.66;;;4.41;65.60
85850;BME280;76337;42.850;-0.560;2024-03-08T00:32:23;87496.50;;;4.27;67.34
85850;BME280;76337;42.850;-0.560;2024-03-08T00:34:50;87503.66;;;4.35;66.50
85850;BME280;76337;42.850;-0.560;2024-03-08T00:37:17;87503.34;;;4.14;69.68
85850;BME280;76337;42.850;-0.560;2024-03-08T00:39:43;87507.34;;;4.17;67.47
85850;BME280;76337;42.850;-0.560;2024-03-08T00:42:09;87490.66;;;4.06;69.14
85850;BME280;76337;42.850;-0.560;2024-03-08T00:44:34;87490.09;;;4.04;69.38
85850;BME280;76337;42.850;-0.560;2024-03-08T00:47:00;87479.19;;;4.29;65.96
85850;BME280;76337;42.850;-0.560;2024-03-08T00:49:28;87480.38;;;4.19;66.92
85850;BME280;76337;42.850;-0.560;2024-03-08T00:51:54;87452.31;;;4.29;67.71
85850;BME280;76337;42.850;-0.560;2024-03-08T00:54:20;87464.03;;;4.15;65.57
85850;BME280;76337;42.850;-0.560;2024-03-08T00:56:45;87477.53;;;4.21;66.44
85850;BME280;76337;42.850;-0.560;2024-03-08T00:59:11;87486.56;;;4.05;67.12
85850;BME280;76337;42.850;-0.560;2024-03-08T01:01:40;87493.22;;;3.96;68.65
85850;BME280;76337;42.850;-0.560;2024-03-08T01:04:06;87506.72;;;3.87;70.97
85850;BME280;76337;42.850;-0.560;2024-03-08T01:06:33;87500.41;;;3.61;74.07
85850;BME280;76337;42.850;-0.560;2024-03-08T01:08:59;87485.88;;;3.48;74.69
85850;BME280;76337;42.850;-0.560;2024-03-08T01:11:25;87470.03;;;3.34;75.63
85850;BME280;76337;42.850;-0.560;2024-03-08T01:13:51;87451.66;;;3.31;76.18
85850;BME280;76337;42.850;-0.560;2024-03-08T01:16:17;87442.84;;;3.28;75.74
85850;BME280;76337;42.850;-0.560;2024-03-08T01:18:43;87433.66;;;3.34;74.08
85850;BME280;76337;42.850;-0.560;2024-03-08T01:21:09;87426.03;;;3.49;72.70
85850;BME280;76337;42.850;-0.560;2024-03-08T01:23:35;87431.84;;;3.43;74.63
85850;BME280;76337;42.850;-0.560;2024-03-08T01:26:00;87430.91;;;3.34;75.47
85850;BME280;76337;42.850;-0.560;2024-03-08T01:28:27;87440.47;;;3.35;73.76
85850;BME280;76337;42.850;-0.560;2024-03-08T01:30:54;87461.41;;;3.42;73.42
85850;BME280;76337;42.850;-0.560;2024-03-08T01:33:23;87452.59;;;3.40;75.71
85850;BME280;76337;42.850;-0.560;2024-03-08T01:35:49;87452.91;;;3.34;76.41
85850;BME280;76337;42.850;-0.560;2024-03-08T01:38:15;87449.66;;;3.29;75.93
85850;BME280;76337;42.850;-0.560;2024-03-08T01:40:41;87432.78;;;3.23;77.86
85850;BME280;76337;42.850;-0.560;2024-03-08T01:43:25;87443.03;;;3.10;78.21
85850;BME280;76337;42.850;-0.560;2024-03-08T01:45:54;87434.31;;;3.05;78.19
85850;BME280;76337;42.850;-0.560;2024-03-08T01:48:21;87454.56;;;2.97;78.46
85850;BME280;76337;42.850;-0.560;2024-03-08T01:50:50;87451.25;;;2.95;78.42
85850;BME280;76337;42.850;-0.560;2024-03-08T01:53:18;87455.63;;;2.90;80.19
85850;BME280;76337;42.850;-0.560;2024-03-08T01:55:46;87456.75;;;2.80;79.24
85850;BME280;76337;42.850;-0.560;2024-03-08T01:58:13;87444.34;;;2.81;79.95
85850;BME280;76337;42.850;-0.560;2024-03-08T02:00:43;87443.09;;;2.78;79.46
85850;BME280;76337;42.850;-0.560;2024-03-08T02:03:10;87439.09;;;2.75;81.71
85850;BME280;76337;42.850;-0.560;2024-03-08T02:05:37;87414.38;;;2.61;81.22
85850;BME280;76337;42.850;-0.560;2024-03-08T02:08:04;87431.22;;;2.53;82.09
85850;BME280;76337;42.850;-0.560;2024-03-08T02:10:33;87420.31;;;2.51;82.01
85850;BME280;76337;42.850;-0.560;2024-03-08T02:13:01;87418.22;;;2.51;81.25
85850;BME280;76337;42.850;-0.560;2024-03-08T02:16:03;87421.25;;;2.45;82.64
85850;BME280;76337;42.850;-0.560;2024-03-08T02:18:31;87420.28;;;2.36;82.94
85850;BME280;76337;42.850;-0.560;2024-03-08T02:21:01;87421.69;;;2.35;83.28
85850;BME280;76337;42.850;-0.560;2024-03-08T02:23:28;87422.38;;;2.36;82.41
85850;BME280;76337;42.850;-0.560;2024-03-08T02:25:55;87427.97;;;2.34;83.22
85850;BME280;76337;42.850;-0.560;2024-03-08T02:28:22;87414.97;;;2.32;83.53
85850;BME280;76337;42.850;-0.560;2024-03-08T02:30:48;87414.28;;;2.32;82.83
85850;BME280;76337;42.850;-0.560;2024-03-08T02:33:16;87407.09;;;2.24;83.58
85850;BME280;76337;42.850;-0.560;2024-03-08T02:35:44;87408.00;;;2.18;84.04
85850;BME280;76337;42.850;-0.560;2024-03-08T02:38:13;87405.59;;;2.27;84.62
85850;BME280;76337;42.850;-0.560;2024-03-08T02:40:43;87389.94;;;2.23;84.32
85850;BME280;76337;42.850;-0.560;2024-03-08T02:43:10;87383.78;;;2.23;84.52
85850;BME280;76337;42.850;-0.560;2024-03-08T02:45:36;87379.81;;;2.20;86.38
85850;BME280;76337;42.850;-0.560;2024-03-08T02:48:02;87359.25;;;2.04;86.59
85850;BME280;76337;42.850;-0.560;2024-03-08T02:50:28;87352.16;;;2.09;86.42
85850;BME280;76337;42.850;-0.560;2024-03-08T02:52:54;87322.06;;;2.07;86.44
85850;BME280;76337;42.850;-0.560;2024-03-08T02:55:20;87333.31;;;2.01;87.51
85850;BME280;76337;42.850;-0.560;2024-03-08T02:57:46;87329.97;;;1.99;86.74
85850;BME280;76337;42.850;-0.560;2024-03-08T03:00:13;87328.28;;;1.91;86.89
85850;BME280;76337;42.850;-0.560;2024-03-08T03:02:39;87325.34;;;1.95;86.86
85850;BME280;76337;42.850;-0.560;2024-03-08T03:05:05;87324.03;;;1.94;87.50
85850;BME280;76337;42.850;-0.560;2024-03-08T03:07:32;87332.59;;;1.86;86.97
85850;BME280;76337;42.850;-0.560;2024-03-08T03:09:59;87356.38;;;1.92;87.13
85850;BME280;76337;42.850;-0.560;2024-03-08T03:12:28;87342.38;;;1.98;85.90
85850;BME280;76337;42.850;-0.560;2024-03-08T03:14:54;87355.72;;;1.91;86.78
85850;BME280;76337;42.850;-0.560;2024-03-08T03:17:20;87364.63;;;1.92;87.30
85850;BME280;76337;42.850;-0.560;2024-03-08T03:19:45;87357.25;;;2.03;86.08
85850;BME280;76337;42.850;-0.560;2024-03-08T03:22:12;87357.56;;;2.11;85.75
85850;BME280;76337;42.850;-0.560;2024-03-08T03:24:38;87371.91;;;1.97;86.66
85850;BME280;76337;42.850;-0.560;2024-03-08T03:27:04;87373.56;;;1.90;87.59
85850;BME280;76337;42.850;-0.560;2024-03-08T03:29:37;87370.75;;;1.92;87.90
85850;BME280;76337;42.850;-0.560;2024-03-08T03:32:03;87373.41;;;1.94;88.26
85850;BME280;76337;42.850;-0.560;2024-03-08T03:34:29;87372.00;;;1.95;87.69
85850;BME280;76337;42.850;-0.560;2024-03-08T03:36:55;87374.69;;;2.12;86.08
85850;BME280;76337;42.850;-0.560;2024-03-08T03:39:21;87368.72;;;2.07;87.40
85850;BME280;76337;42.850;-0.560;2024-03-08T03:41:48;87375.72;;;2.04;87.88
85850;BME280;76337;42.850;-0.560;2024-03-08T03:44:17;87363.31;;;2.05;86.34
85850;BME280;76337;42.850;-0.560;2024-03-08T03:46:43;87360.03;;;2.17;85.46
85850;BME280;76337;42.850;-0.560;2024-03-08T03:49:10;87353.13;;;2.18;84.66
85850;BME280;76337;42.850;-0.560;2024-03-08T03:51:36;87349.06;;;2.17;85.55
85850;BME280;76337;42.850;-0.560;2024-03-08T03:54:02;87375.75;;;2.19;84.27
85850;BME280;76337;42.850;-0.560;2024-03-08T03:56:29;87363.00;;;2.28;82.89
85850;BME280;76337;42.850;-0.560;2024-03-08T03:58:56;87350.94;;;2.21;83.92
85850;BME280;76337;42.850;-0.560;2024-03-08T04:01:22;87359.84;;;2.21;82.21
85850;BME280;76337;42.850;-0.560;2024-03-08T04:03:47;87358.44;;;2.22;83.21
85850;BME280;76337;42.850;-0.560;2024-03-08T04:06:13;87359.09;;;2.23;83.87
85850;BME280;76337;42.850;-0.560;2024-03-08T04:08:40;87363.84;;;2.24;82.28
85850;BME280;76337;42.850;-0.560;2024-03-08T04:11:07;87354.84;;;2.26;82.48
85850;BME280;76337;42.850;-0.560;2024-03-08T04:13:34;87353.44;;;2.27;83.92
85850;BME280;76337;42.850;-0.560;2024-03-08T04:16:00;87344.03;;;2.22;83.44
85850;BME280;76337;42.850;-0.560;2024-03-08T04:18:26;87339.97;;;2.21;83.56
85850;BME280;76337;42.850;-0.560;2024-03-08T04:20:51;87320.56;;;2.25;82.29
85850;BME280;76337;42.850;-0.560;2024-03-08T04:23:17;87329.44;;;2.11;84.02
85850;BME280;76337;42.850;-0.560;2024-03-08T04:25:43;87344.88;;;2.18;83.54
85850;BME280;76337;42.850;-0.560;2024-03-08T04:28:09;87328.88;;;2.08;85.53
85850;BME280;76337;42.850;-0.560;2024-03-08T04:30:39;87334.38;;;2.08;85.58
85850;BME280;76337;42.850;-0.560;2024-03-08T04:33:05;87341.06;;;1.97;85.97
85850;BME280;76337;42.850;-0.560;2024-03-08T04:35:33;87356.28;;;1.94;87.38
85850;BME280;76337;42.850;-0.560;2024-03-08T04:37:59;87353.97;;;1.84;87.42
85850;BME280;76337;42.850;-0.560;2024-03-08T04:40:25;87349.16;;;1.84;87.50
85850;BME280;76337;42.850;-0.560;2024-03-08T04:42:51;87344.38;;;1.99;85.57
85850;BME280;76337;42.850;-0.560;2024-03-08T04:45:17;87353.06;;;1.89;84.75
85850;BME280;76337;42.850;-0.560;2024-03-08T04:47:44;87385.97;;;1.89;85.89
85850;BME280;76337;42.850;-0.560;2024-03-08T04:50:11;87384.00;;;1.88;84.97
85850;BME280;76337;42.850;-0.560;2024-03-08T04:52:37;87384.50;;;1.76;85.33
85850;BME280;76337;42.850;-0.560;2024-03-08T04:55:03;87380.69;;;1.69;85.22
85850;BME280;76337;42.850;-0.560;2024-03-08T04:57:30;87375.91;;;1.52;85.38
85850;BME280;76337;42.850;-0.560;2024-03-08T04:59:57;87371.06;;;1.53;86.49
85850;BME280;76337;42.850;-0.560;2024-03-08T05:02:24;87375.22;;;1.52;86.92
85850;BME280;76337;42.850;-0.560;2024-03-08T05:04:50;87367.41;;;1.59;85.95
85850;BME280;76337;42.850;-0.560;2024-03-08T05:07:16;87359.28;;;1.57;86.58
85850;BME280;76337;42.850;-0.560;2024-03-08T05:09:42;87354.06;;;1.50;87.02
85850;BME280;76337;42.850;-0.560;2024-03-08T05:12:07;87359.28;;;1.40;87.26
85850;BME280;76337;42.850;-0.560;2024-03-08T05:14:33;87351.56;;;1.44;86.63
85850;BME280;76337;42.850;-0.560;2024-03-08T05:17:00;87347.09;;;1.37;87.55
85850;BME280;76337;42.850;-0.560;2024-03-08T05:19:26;87339.78;;;1.31;88.12
85850;BME280;76337;42.850;-0.560;2024-03-08T05:21:52;87348.84;;;1.28;87.85
85850;BME280;76337;42.850;-0.560;2024-03-08T05:24:18;87339.22;;;1.29;86.84
85850;BME280;76337;42.850;-0.560;2024-03-08T05:26:44;87333.38;;;1.20;87.87
85850;BME280;76337;42.850;-0.560;2024-03-08T05:29:11;87348.16;;;1.27;88.22
85850;BME280;76337;42.850;-0.560;2024-03-08T05:31:52;87363.22;;;1.28;88.01
85850;BME280;76337;42.850;-0.560;2024-03-08T05:34:18;87361.78;;;1.29;87.84
85850;BME280;76337;42.850;-0.560;2024-03-08T05:36:45;87357.06;;;1.28;88.50
85850;BME280;76337;42.850;-0.560;2024-03-08T05:39:13;87347.91;;;1.33;88.79
85850;BME280;76337;42.850;-0.560;2024-03-08T05:41:39;87349.41;;;1.30;88.83
85850;BME280;76337;42.850;-0.560;2024-03-08T05:44:05;87355.97;;;1.37;88.68
85850;BME280;76337;42.850;-0.560;2024-03-08T05:46:31;87343.00;;;1.36;88.45
85850;BME280;76337;42.850;-0.560;2024-03-08T05:48:57;87348.31;;;1.40;88.82
85850;BME280;76337;42.850;-0.560;2024-03-08T05:51:25;87354.28;;;1.44;87.51
85850;BME280;76337;42.850;-0.560;2024-03-08T05:53:53;87348.16;;;1.44;86.00
85850;BME280;76337;42.850;-0.560;2024-03-08T05:56:19;87359.69;;;1.46;87.09
85850;BME280;76337;42.850;-0.560;2024-03-08T05:58:45;87357.88;;;1.41;87.26
85850;BME280;76337;42.850;-0.560;2024-03-08T06:01:11;87363.19;;;1.45;87.05
85850;BME280;76337;42.850;-0.560;2024-03-08T06:03:38;87362.38;;;1.48;87.22
85850;BME280;76337;42.850;-0.560;2024-03-08T06:06:12;87360.78;;;1.53;87.29
85850;BME280;76337;42.850;-0.560;2024-03-08T06:08:38;87366.34;;;1.51;85.11
85850;BME280;76337;42.850;-0.560;2024-03-08T06:11:04;87358.03;;;1.53;85.53
85850;BME280;76337;42.850;-0.560;2024-03-08T06:13:32;87358.34;;;1.62;85.31
85850;BME280;76337;42.850;-0.560;2024-03-08T06:15:59;87356.28;;;1.63;84.39
85850;BME280;76337;42.850;-0.560;2024-03-08T06:18:26;87356.66;;;1.69;84.16
85850;BME280;76337;42.850;-0.560;2024-03-08T06:20:52;87358.66;;;1.71;82.93
85850;BME280;76337;42.850;-0.560;2024-03-08T06:23:18;87364.91;;;1.69;82.65
85850;BME280;76337;42.850;-0.560;2024-03-08T06:25:44;87357.25;;;1.72;84.04
85850;BME280;76337;42.850;-0.560;2024-03-08T06:28:10;87355.19;;;1.72;82.77
85850;BME280;76337;42.850;-0.560;2024-03-08T06:30:36;87358.50;;;1.75;83.77
85850;BME280;76337;42.850;-0.560;2024-03-08T06:33:01;87347.69;;;1.71;81.81
85850;BME280;76337;42.850;-0.560;2024-03-08T06:35:27;87323.31;;;1.79;83.53
85850;BME280;76337;42.850;-0.560;2024-03-08T06:37:53;87325.75;;;1.71;82.36
85850;BME280;76337;42.850;-0.560;2024-03-08T06:40:19;87333.16;;;1.74;81.98
85850;BME280;76337;42.850;-0.560;2024-03-08T06:42:45;87328.88;;;1.77;82.56
85850;BME280;76337;42.850;-0.560;2024-03-08T06:45:10;87319.84;;;1.64;81.43
85850;BME280;76337;42.850;-0.560;2024-03-08T06:47:37;87330.91;;;1.62;82.80
85850;BME280;76337;42.850;-0.560;2024-03-08T06:50:03;87333.25;;;1.72;80.07
85850;BME280;76337;42.850;-0.560;2024-03-08T06:52:29;87346.59;;;1.80;78.75
85850;BME280;76337;42.850;-0.560;2024-03-08T06:54:55;87343.19;;;1.80;78.05
85850;BME280;76337;42.850;-0.560;2024-03-08T06:57:22;87323.53;;;1.90;78.01
85850;BME280;76337;42.850;-0.560;2024-03-08T06:59:49;87323.06;;;1.85;80.04
85850;BME280;76337;42.850;-0.560;2024-03-08T07:02:15;87316.72;;;1.89;77.47
85850;BME280;76337;42.850;-0.560;2024-03-08T07:04:40;87314.84;;;1.85;79.15
85850;BME280;76337;42.850;-0.560;2024-03-08T07:07:06;87309.34;;;1.85;79.13
85850;BME280;76337;42.850;-0.560;2024-03-08T07:09:36;87299.69;;;1.86;79.39
85850;BME280;76337;42.850;-0.560;2024-03-08T07:12:02;87283.72;;;1.91;76.35
85850;BME280;76337;42.850;-0.560;2024-03-08T07:14:28;87279.66;;;1.90;78.56
85850;BME280;76337;42.850;-0.560;2024-03-08T07:16:54;87286.25;;;1.95;75.84
85850;BME280;76337;42.850;-0.560;2024-03-08T07:19:19;87286.94;;;1.95;75.52
85850;BME280;76337;42.850;-0.560;2024-03-08T07:21:47;87286.56;;;2.03;75.85
85850;BME280;76337;42.850;-0.560;2024-03-08T07:24:13;87292.41;;;1.95;76.79
85850;BME280;76337;42.850;-0.560;2024-03-08T07:26:57;87297.72;;;1.99;75.85
85850;BME280;76337;42.850;-0.560;2024-03-08T07:29:23;87285.63;;;2.09;72.43
85850;BME280;76337;42.850;-0.560;2024-03-08T07:31:49;87284.00;;;1.99;74.29
85850;BME280;76337;42.850;-0.560;2024-03-08T07:34:21;87282.97;;;2.07;73.88
85850;BME280;76337;42.850;-0.560;2024-03-08T07:36:47;87260.25;;;2.08;73.59
85850;BME280;76337;42.850;-0.560;2024-03-08T07:39:14;87258.84;;;2.24;70.92
85850;BME280;76337;42.850;-0.560;2024-03-08T07:41:40;87256.03;;;2.26;73.07
85850;BME280;76337;42.850;-0.560;2024-03-08T07:44:07;87247.88;;;2.24;71.77
85850;BME280;76337;42.850;-0.560;2024-03-08T07:46:33;87239.75;;;2.22;73.79
85850;BME280;76337;42.850;-0.560;2024-03-08T07:49:00;87202.34;;;2.29;69.76
85850;BME280;76337;42.850;-0.560;2024-03-08T07:51:26;87199.34;;;2.20;72.94
85850;BME280;76337;42.850;-0.560;2024-03-08T07:53:51;87208.00;;;2.25;70.83
85850;BME280;76337;42.850;-0.560;2024-03-08T07:56:17;87210.94;;;2.21;72.77
85850;BME280;76337;42.850;-0.560;2024-03-08T07:58:44;87228.56;;;2.26;74.27
85850;BME280;76337;42.850;-0.560;2024-03-08T08:01:17;87236.22;;;2.23;73.98
85850;BME280;76337;42.850;-0.560;2024-03-08T08:03:43;87238.13;;;2.27;73.24
85850;BME280;76337;42.850;-0.560;2024-03-08T08:06:09;87241.72;;;2.38;72.11
85850;BME280;76337;42.850;-0.560;2024-03-08T08:08:35;87252.88;;;2.34;72.72
85850;BME280;76337;42.850;-0.560;2024-03-08T08:11:02;87268.16;;;2.31;72.04
85850;BME280;76337;42.850;-0.560;2024-03-08T08:13:28;87268.53;;;2.38;73.09
85850;BME280;76337;42.850;-0.560;2024-03-08T08:15:57;87279.88;;;2.44;73.98
85850;BME280;76337;42.850;-0.560;2024-03-08T08:18:24;87284.03;;;2.43;74.57
85850;BME280;76337;42.850;-0.560;2024-03-08T08:20:51;87284.78;;;2.56;72.62
85850;BME280;76337;42.850;-0.560;2024-03-08T08:23:18;87279.97;;;2.57;71.80
85850;BME280;76337;42.850;-0.560;2024-03-08T08:25:45;87289.06;;;2.68;73.57
85850;BME280;76337;42.850;-0.560;2024-03-08T08:28:11;87278.31;;;2.91;71.86
85850;BME280;76337;42.850;-0.560;2024-03-08T08:30:38;87267.09;;;3.10;70.08
85850;BME280;76337;42.850;-0.560;2024-03-08T08:33:04;87263.47;;;3.13;69.41
85850;BME280;76337;42.850;-0.560;2024-03-08T08:35:31;87261.41;;;3.14;68.85
85850;BME280;76337;42.850;-0.560;2024-03-08T08:37:58;87271.13;;;3.25;71.45
85850;BME280;76337;42.850;-0.560;2024-03-08T08:40:24;87269.84;;;3.37;73.15
85850;BME280;76337;42.850;-0.560;2024-03-08T08:42:51;87271.84;;;3.38;68.87
85850;BME280;76337;42.850;-0.560;2024-03-08T08:45:18;87288.75;;;3.30;70.16
85850;BME280;76337;42.850;-0.560;2024-03-08T08:47:44;87277.97;;;3.53;69.95
85850;BME280;76337;42.850;-0.560;2024-03-08T08:50:10;87282.22;;;3.77;68.14
85850;BME280;76337;42.850;-0.560;2024-03-08T08:52:38;87284.09;;;3.81;68.43
85850;BME280;76337;42.850;-0.560;2024-03-08T08:55:05;87272.19;;;4.24;61.47
85850;BME280;76337;42.850;-0.560;2024-03-08T08:57:32;87264.69;;;4.48;65.52
85850;BME280;76337;42.850;-0.560;2024-03-08T08:59:59;87266.03;;;4.87;69.59
85850;BME280;76337;42.850;-0.560;2024-03-08T09:02:25;87255.09;;;4.97;62.92
85850;BME280;76337;42.850;-0.560;2024-03-08T09:04:51;87261.69;;;5.02;63.58
85850;BME280;76337;42.850;-0.560;2024-03-08T09:07:17;87259.63;;;5.39;64.08
85850;BME280;76337;42.850;-0.560;2024-03-08T09:09:44;87247.91;;;6.20;62.52
85850;BME280;76337;42.850;-0.560;2024-03-08T09:12:10;87241.97;;;7.25;55.92
85850;BME280;76337;42.850;-0.560;2024-03-08T09:14:40;87260.25;;;6.89;56.20
85850;BME280;76337;42.850;-0.560;2024-03-08T09:17:05;87258.66;;;6.14;54.60
85850;BME280;76337;42.850;-0.560;2024-03-08T09:19:35;87263.41;;;6.15;57.59
85850;BME280;76337;42.850;-0.560;2024-03-08T09:22:02;87268.53;;;5.87;58.97
85850;BME280;76337;42.850;-0.560;2024-03-08T09:24:29;87275.31;;;5.29;55.82
85850;BME280;76337;42.850;-0.560;2024-03-08T09:26:56;87274.63;;;4.93;64.79
85850;BME280;76337;42.850;-0.560;2024-03-08T09:29:24;87276.47;;;4.97;59.77
85850;BME280;76337;42.850;-0.560;2024-03-08T09:31:49;87275.38;;;4.79;58.91
85850;BME280;76337;42.850;-0.560;2024-03-08T09:34:16;87271.88;;;4.55;62.52
85850;BME280;76337;42.850;-0.560;2024-03-08T09:36:42;87259.97;;;4.72;60.36
85850;BME280;76337;42.850;-0.560;2024-03-08T09:39:09;87265.09;;;5.03;61.29
85850;BME280;76337;42.850;-0.560;2024-03-08T09:41:34;87268.59;;;5.14;61.33
85850;BME280;76337;42.850;-0.560;2024-03-08T09:44:00;87268.66;;;5.73;59.19
85850;BME280;76337;42.850;-0.560;2024-03-08T09:46:26;87257.59;;;5.50;59.13
85850;BME280;76337;42.850;-0.560;2024-03-08T09:48:54;87253.78;;;5.32;58.38
85850;BME280;76337;42.850;-0.560;2024-03-08T09:51:27;87258.44;;;5.23;58.08
85850;BME280;76337;42.850;-0.560;2024-03-08T09:53:54;87258.00;;;5.18;59.86
85850;BME280;76337;42.850;-0.560;2024-03-08T09:56:22;87239.03;;;5.84;58.94
85850;BME280;76337;42.850;-0.560;2024-03-08T09:58:49;87233.19;;;5.54;57.06
85850;BME280;76337;42.850;-0.560;2024-03-08T10:01:33;87238.41;;;5.48;59.25
85850;BME280;76337;42.850;-0.560;2024-03-08T10:03:59;87234.75;;;5.15;62.66
85850;BME280;76337;42.850;-0.560;2024-03-08T10:06:24;87228.22;;;5.21;62.88
85850;BME280;76337;42.850;-0.560;2024-03-08T10:08:51;87225.06;;;5.04;61.49
85850;BME280;76337;42.850;-0.560;2024-03-08T10:11:18;87233.78;;;4.96;62.69
85850;BME280;76337;42.850;-0.560;2024-03-08T10:13:45;87233.81;;;4.83;66.37
85850;BME280;76337;42.850;-0.560;2024-03-08T10:16:12;87230.50;;;4.81;63.79
85850;BME280;76337;42.850;-0.560;2024-03-08T10:18:38;87217.19;;;4.60;62.36
85850;BME280;76337;42.850;-0.560;2024-03-08T10:21:05;87212.25;;;4.63;64.22
85850;BME280;76337;42.850;-0.560;2024-03-08T10:23:32;87202.75;;;4.72;64.14
85850;BME280;76337;42.850;-0.560;2024-03-08T10:26:10;87214.75;;;4.79;65.32
85850;BME280;76337;42.850;-0.560;2024-03-08T10:28:36;87201.53;;;5.17;58.17
85850;BME280;76337;42.850;-0.560;2024-03-08T10:31:02;87199.72;;;5.37;62.08
85850;BME280;76337;42.850;-0.560;2024-03-08T10:33:28;87202.22;;;5.41;60.48
85850;BME280;76337;42.850;-0.560;2024-03-08T10:35:54;87182.13;;;5.43;58.39
85850;BME280;76337;42.850;-0.560;2024-03-08T10:38:22;87186.50;;;5.96;55.75
85850;BME280;76337;42.850;-0.560;2024-03-08T10:40:50;87191.31;;;5.62;56.31
85850;BME280;76337;42.850;-0.560;2024-03-08T10:43:23;87177.16;;;5.22;59.57
85850;BME280;76337;42.850;-0.560;2024-03-08T10:46:00;87190.38;;;4.84;61.43
85850;BME280;76337;42.850;-0.560;2024-03-08T10:48:31;87182.81;;;4.46;62.22
85850;BME280;76337;42.850;-0.560;2024-03-08T10:50:59;87190.88;;;4.25;61.14
85850;BME280;76337;42.850;-0.560;2024-03-08T10:53:27;87186.78;;;4.37;62.92
85850;BME280;76337;42.850;-0.560;2024-03-08T10:55:56;87175.34;;;4.32;62.86
85850;BME280;76337;42.850;-0.560;2024-03-08T10:58:24;87168.75;;;4.02;64.26
85850;BME280;76337;42.850;-0.560;2024-03-08T11:00:53;87165.56;;;4.10;64.92
85850;BME280;76337;42.850;-0.560;2024-03-08T11:06:07;87167.84;;;4.43;62.33
85850;BME280;76337;42.850;-0.560;2024-03-08T11:08:36;87155.91;;;4.60;64.73
85850;BME280;76337;42.850;-0.560;2024-03-08T11:11:02;87145.25;;;4.89;62.57
85850;BME280;76337;42.850;-0.560;2024-03-08T11:13:39;87146.25;;;5.19;60.36
85850;BME280;76337;42.850;-0.560;2024-03-08T11:16:09;87161.69;;;4.91;61.75
85850;BME280;76337;42.850;-0.560;2024-03-08T11:18:35;87155.19;;;4.36;63.25
85850;BME280;76337;42.850;-0.560;2024-03-08T11:21:03;87143.06;;;4.31;65.30
85850;BME280;76337;42.850;-0.560;2024-03-08T11:23:33;87152.09;;;4.29;63.77
85850;BME280;76337;42.850;-0.560;2024-03-08T11:25:59;87155.75;;;4.13;65.65
85850;BME280;76337;42.850;-0.560;2024-03-08T11:28:25;87146.41;;;4.08;68.65
85850;BME280;76337;42.850;-0.560;2024-03-08T11:33:53;87170.94;;;3.74;69.88
85850;BME280;76337;42.850;-0.560;2024-03-08T11:36:22;87149.59;;;3.88;72.56
85850;BME280;76337;42.850;-0.560;2024-03-08T11:38:49;87166.31;;;3.84;71.82
85850;BME280;76337;42.850;-0.560;2024-03-08T11:41:20;87163.69;;;3.94;70.32
85850;BME280;76337;42.850;-0.560;2024-03-08T11:43:46;87164.56;;;4.16;70.02
85850;BME280;76337;42.850;-0.560;2024-03-08T11:46:14;87172.50;;;3.97;71.88
85850;BME280;76337;42.850;-0.560;2024-03-08T11:48:40;87153.66;;;4.14;69.97
85850;BME280;76337;42.850;-0.560;2024-03-08T11:51:08;87154.00;;;3.95;72.83
85850;BME280;76337;42.850;-0.560;2024-03-08T11:53:35;87152.09;;;3.79;72.79
85850;BME280;76337;42.850;-0.560;2024-03-08T11:56:10;87144.06;;;3.62;70.06
85850;BME280;76337;42.850;-0.560;2024-03-08T11:58:37;87140.31;;;3.55;73.37
85850;BME280;76337;42.850;-0.560;2024-03-08T12:01:06;87135.03;;;3.51;74.20
85850;BME280;76337;42.850;-0.560;2024-03-08T12:03:32;87141.81;;;3.40;75.33
85850;BME280;76337;42.850;-0.560;2024-03-08T12:06:01;87155.91;;;3.34;74.71
85850;BME280;76337;42.850;-0.560;2024-03-08T12:08:30;87157.56;;;3.54;74.33
85850;BME280;76337;42.850;-0.560;2024-03-08T12:10:58;87173.19;;;3.45;73.48
85850;BME280;76337;42.850;-0.560;2024-03-08T12:13:30;87165.81;;;3.54;73.75
85850;BME280;76337;42.850;-0.560;2024-03-08T12:15:58;87169.31;;;3.27;73.89
85850;BME280;76337;42.850;-0.560;2024-03-08T12:18:26;87152.59;;;3.44;73.45
85850;BME280;76337;42.850;-0.560;2024-03-08T12:21:10;87142.84;;;3.59;74.71
85850;BME280;76337;42.850;-0.560;2024-03-08T12:23:37;87141.09;;;3.79;75.22
85850;BME280;76337;42.850;-0.560;2024-03-08T12:26:24;87144.63;;;3.90;75.27
85850;BME280;76337;42.850;-0.560;2024-03-08T12:28:52;87144.63;;;4.03;74.67
85850;BME280;76337;42.850;-0.560;2024-03-08T12:31:18;87136.38;;;4.03;74.85
85850;BME280;76337;42.850;-0.560;2024-03-08T12:33:49;87141.44;;;3.98;74.37
85850;BME280;76337;42.850;-0.560;2024-03-08T12:36:15;87166.09;;;3.88;75.69
85850;BME280;76337;42.850;-0.560;2024-03-08T12:38:45;87149.25;;;3.68;74.01
85850;BME280;76337;42.850;-0.560;2024-03-08T12:41:14;87135.38;;;3.83;75.12
85850;BME280;76337;42.850;-0.560;2024-03-08T12:43:43;87129.53;;;3.76;73.52
85850;BME280;76337;42.850;-0.560;2024-03-08T12:48:42;87126.78;;;3.64;73.76
85850;BME280;76337;42.850;-0.560;2024-03-08T12:51:15;87112.47;;;3.99;74.11
85850;BME280;76337;42.850;-0.560;2024-03-08T12:53:42;87116.22;;;4.06;72.08
85850;BME280;76337;42.850;-0.560;2024-03-08T12:56:12;87107.72;;;3.98;74.57
85850;BME280;76337;42.850;-0.560;2024-03-08T12:58:38;87127.56;;;4.00;72.78
85850;BME280;76337;42.850;-0.560;2024-03-08T13:01:06;87122.06;;;3.88;71.77
85850;BME280;76337;42.850;-0.560;2024-03-08T13:03:33;87111.47;;;3.67;74.03
85850;BME280;76337;42.850;-0.560;2024-03-08T13:06:02;87125.44;;;3.63;72.19
85850;BME280;76337;42.850;-0.560;2024-03-08T13:08:28;87128.75;;;3.78;73.29